Foosland, Illinois
Current Conditions -  °F | °C
As of 1:10 PM on Friday 28 Nov 2014 (Local Time) from KTIP Reporting Station
Clear Clear  
Wind Chill: 29°   Ceiling: Unl
Heat Index: 38°   Visibility: 10mi
Dew Point: 31°   Wind: 15mph
Humidity: 75%   Direction: 170°S
Pressure: 30.07"   Gusts: 25mph
Location:  40.36°N, 88.43°W
Report Text: KTIP 281910Z AUTO 17013G22KT 10SM CLR 03/M01 A3007 RMK AO2 T00321008
Loading
Personal Weather Stations






























Interactive Weather Map New forecast layout! Learn more

10-Day Weather Forecast

Advertisements
Track Severe Weather on mobile